LIPR/RMI METAR and TAF weather

Enter ICAO airport designator
Station Type Date Time Source
LIPR METAR 2021/09/28 17:20 UTC NOAA

LIPR 281720Z 18001KT CAVOK 21/18 Q1018


Station Type Date Time Source
LIPR Decoded METAR 2021/09/28 17:20 UTC NOAA

Rimini, Italy (LIPR) 44-02N 012-37E 13M
Sep 28, 2021 - 01:20 PM EDT / 2021.09.28 1720 UTC
Wind: from the S (180 degrees) at 1 MPH (1 KT):0
Visibility: greater than 7 mile(s):0
Temperature: 69 F (21 C)
Dew Point: 64 F (18 C)
Relative Humidity: 82%
Pressure (altimeter): 30.06 in. Hg (1018 hPa)
ob: LIPR 281720Z 18001KT CAVOK 21/18 Q1018
cycle: 17

Station Type Date Time Source
LIPR TAF 2021/09/28 18:21 UTC NOAA

TAF LIPR 281700Z 2818/2918 VRB05KT 7000 NSC
BECMG 2912/2914 08010KT

Example: see airport list